sensor_id;sensor_type;location;lat;lon;timestamp;P1;durP1;ratioP1;P2;durP2;ratioP2
32333;SDS011;18810;53.040;8.850;2022-10-19T00:00:46;9.73;;;3.33;;
32333;SDS011;18810;53.040;8.850;2022-10-19T00:03:12;13.07;;;3.60;;
32333;SDS011;18810;53.040;8.850;2022-10-19T00:05:38;8.65;;;2.97;;
32333;SDS011;18810;53.040;8.850;2022-10-19T00:08:04;7.95;;;3.08;;
32333;SDS011;18810;53.040;8.850;2022-10-19T00:10:30;10.18;;;3.08;;
32333;SDS011;18810;53.040;8.850;2022-10-19T00:12:56;10.80;;;3.60;;
32333;SDS011;18810;53.040;8.850;2022-10-19T00:15:22;12.43;;;3.38;;
32333;SDS011;18810;53.040;8.850;2022-10-19T00:17:47;8.55;;;2.90;;
32333;SDS011;18810;53.040;8.850;2022-10-19T00:20:13;6.82;;;2.78;;
32333;SDS011;18810;53.040;8.850;2022-10-19T00:22:39;8.43;;;3.45;;
32333;SDS011;18810;53.040;8.850;2022-10-19T00:25:05;7.65;;;3.03;;
32333;SDS011;18810;53.040;8.850;2022-10-19T00:27:31;9.80;;;2.70;;
32333;SDS011;18810;53.040;8.850;2022-10-19T00:29:57;9.93;;;3.20;;
32333;SDS011;18810;53.040;8.850;2022-10-19T00:32:23;7.53;;;2.90;;
32333;SDS011;18810;53.040;8.850;2022-10-19T00:34:49;10.20;;;2.88;;
32333;SDS011;18810;53.040;8.850;2022-10-19T00:37:14;12.85;;;3.13;;
32333;SDS011;18810;53.040;8.850;2022-10-19T00:39:40;9.10;;;2.70;;
32333;SDS011;18810;53.040;8.850;2022-10-19T00:42:08;7.82;;;2.50;;
32333;SDS011;18810;53.040;8.850;2022-10-19T00:47:02;7.90;;;2.60;;
32333;SDS011;18810;53.040;8.850;2022-10-19T00:49:32;9.38;;;2.72;;
32333;SDS011;18810;53.040;8.850;2022-10-19T00:52:04;6.78;;;2.40;;
32333;SDS011;18810;53.040;8.850;2022-10-19T00:54:33;10.80;;;3.17;;
32333;SDS011;18810;53.040;8.850;2022-10-19T00:57:02;9.50;;;2.53;;
32333;SDS011;18810;53.040;8.850;2022-10-19T00:59:29;7.35;;;2.50;;
32333;SDS011;18810;53.040;8.850;2022-10-19T01:01:56;12.15;;;2.80;;
32333;SDS011;18810;53.040;8.850;2022-10-19T01:04:22;5.07;;;2.28;;
32333;SDS011;18810;53.040;8.850;2022-10-19T01:06:50;6.25;;;2.42;;
32333;SDS011;18810;53.040;8.850;2022-10-19T01:09:17;8.13;;;2.65;;
32333;SDS011;18810;53.040;8.850;2022-10-19T01:31:59;9.20;;;2.88;;
32333;SDS011;18810;53.040;8.850;2022-10-19T01:40:06;8.07;;;2.80;;
32333;SDS011;18810;53.040;8.850;2022-10-19T01:42:46;9.35;;;2.45;;
32333;SDS011;18810;53.040;8.850;2022-10-19T01:48:22;10.40;;;2.70;;
32333;SDS011;18810;53.040;8.850;2022-10-19T01:51:05;7.45;;;2.30;;
32333;SDS011;18810;53.040;8.850;2022-10-19T01:53:43;7.75;;;2.28;;
32333;SDS011;18810;53.040;8.850;2022-10-19T01:56:13;5.80;;;2.67;;
32333;SDS011;18810;53.040;8.850;2022-10-19T01:58:42;4.68;;;2.30;;
32333;SDS011;18810;53.040;8.850;2022-10-19T02:01:09;10.68;;;2.60;;
32333;SDS011;18810;53.040;8.850;2022-10-19T02:03:36;8.13;;;2.33;;
32333;SDS011;18810;53.040;8.850;2022-10-19T02:06:04;6.05;;;2.67;;
32333;SDS011;18810;53.040;8.850;2022-10-19T02:08:42;5.13;;;2.35;;
32333;SDS011;18810;53.040;8.850;2022-10-19T02:11:11;7.38;;;2.65;;
32333;SDS011;18810;53.040;8.850;2022-10-19T02:13:36;11.57;;;3.10;;
32333;SDS011;18810;53.040;8.850;2022-10-19T02:16:05;7.90;;;2.63;;
32333;SDS011;18810;53.040;8.850;2022-10-19T02:18:35;6.30;;;2.25;;
32333;SDS011;18810;53.040;8.850;2022-10-19T02:21:03;6.72;;;2.70;;
32333;SDS011;18810;53.040;8.850;2022-10-19T02:23:30;9.05;;;2.65;;
32333;SDS011;18810;53.040;8.850;2022-10-19T02:25:55;7.45;;;2.55;;
32333;SDS011;18810;53.040;8.850;2022-10-19T02:28:21;6.75;;;2.13;;
32333;SDS011;18810;53.040;8.850;2022-10-19T02:30:48;6.72;;;2.20;;
32333;SDS011;18810;53.040;8.850;2022-10-19T02:33:14;8.27;;;2.10;;
32333;SDS011;18810;53.040;8.850;2022-10-19T02:35:40;6.78;;;2.33;;
32333;SDS011;18810;53.040;8.850;2022-10-19T02:38:06;8.07;;;2.20;;
32333;SDS011;18810;53.040;8.850;2022-10-19T02:40:36;6.00;;;2.05;;
32333;SDS011;18810;53.040;8.850;2022-10-19T02:43:06;12.38;;;2.42;;
32333;SDS011;18810;53.040;8.850;2022-10-19T02:45:37;7.53;;;2.17;;
32333;SDS011;18810;53.040;8.850;2022-10-19T02:48:10;10.63;;;1.98;;
32333;SDS011;18810;53.040;8.850;2022-10-19T02:50:45;9.65;;;2.28;;
32333;SDS011;18810;53.040;8.850;2022-10-19T02:53:16;9.63;;;2.25;;
32333;SDS011;18810;53.040;8.850;2022-10-19T02:55:42;7.63;;;2.13;;
32333;SDS011;18810;53.040;8.850;2022-10-19T02:58:08;10.10;;;2.08;;
32333;SDS011;18810;53.040;8.850;2022-10-19T03:00:34;9.23;;;3.15;;
32333;SDS011;18810;53.040;8.850;2022-10-19T03:03:00;7.70;;;2.40;;
32333;SDS011;18810;53.040;8.850;2022-10-19T03:05:27;7.07;;;2.60;;
32333;SDS011;18810;53.040;8.850;2022-10-19T03:07:53;5.05;;;2.78;;
32333;SDS011;18810;53.040;8.850;2022-10-19T03:10:18;3.75;;;2.10;;
32333;SDS011;18810;53.040;8.850;2022-10-19T03:12:45;6.30;;;2.33;;
32333;SDS011;18810;53.040;8.850;2022-10-19T03:15:17;11.10;;;2.45;;
32333;SDS011;18810;53.040;8.850;2022-10-19T03:17:43;4.90;;;2.30;;
32333;SDS011;18810;53.040;8.850;2022-10-19T03:20:09;6.93;;;2.30;;
32333;SDS011;18810;53.040;8.850;2022-10-19T03:22:35;8.15;;;2.55;;
32333;SDS011;18810;53.040;8.850;2022-10-19T03:25:01;4.32;;;2.00;;
32333;SDS011;18810;53.040;8.850;2022-10-19T03:27:27;4.87;;;1.77;;
32333;SDS011;18810;53.040;8.850;2022-10-19T03:29:53;6.28;;;2.10;;
32333;SDS011;18810;53.040;8.850;2022-10-19T03:32:18;8.35;;;2.05;;
32333;SDS011;18810;53.040;8.850;2022-10-19T03:34:44;6.47;;;2.45;;
32333;SDS011;18810;53.040;8.850;2022-10-19T03:37:10;13.25;;;2.30;;
32333;SDS011;18810;53.040;8.850;2022-10-19T03:39:37;7.03;;;1.98;;
32333;SDS011;18810;53.040;8.850;2022-10-19T03:42:03;5.22;;;2.00;;
32333;SDS011;18810;53.040;8.850;2022-10-19T03:44:28;6.78;;;2.28;;
32333;SDS011;18810;53.040;8.850;2022-10-19T03:46:54;6.65;;;2.28;;
32333;SDS011;18810;53.040;8.850;2022-10-19T03:49:20;6.55;;;2.63;;
32333;SDS011;18810;53.040;8.850;2022-10-19T03:51:46;8.00;;;2.50;;
32333;SDS011;18810;53.040;8.850;2022-10-19T03:54:12;8.80;;;2.90;;
32333;SDS011;18810;53.040;8.850;2022-10-19T03:56:40;6.45;;;2.15;;
32333;SDS011;18810;53.040;8.850;2022-10-19T03:59:05;7.95;;;2.67;;
32333;SDS011;18810;53.040;8.850;2022-10-19T04:01:36;9.35;;;2.63;;
32333;SDS011;18810;53.040;8.850;2022-10-19T04:04:05;5.70;;;2.55;;
32333;SDS011;18810;53.040;8.850;2022-10-19T04:06:35;6.70;;;2.70;;
32333;SDS011;18810;53.040;8.850;2022-10-19T04:09:03;9.10;;;2.70;;
32333;SDS011;18810;53.040;8.850;2022-10-19T04:11:31;6.55;;;2.13;;
32333;SDS011;18810;53.040;8.850;2022-10-19T04:13:58;7.97;;;2.40;;
32333;SDS011;18810;53.040;8.850;2022-10-19T04:16:25;7.65;;;2.40;;
32333;SDS011;18810;53.040;8.850;2022-10-19T04:18:52;8.55;;;2.42;;
32333;SDS011;18810;53.040;8.850;2022-10-19T04:23:52;9.48;;;2.33;;
32333;SDS011;18810;53.040;8.850;2022-10-19T04:26:21;9.52;;;2.95;;
32333;SDS011;18810;53.040;8.850;2022-10-19T04:28:47;12.88;;;3.15;;
32333;SDS011;18810;53.040;8.850;2022-10-19T04:31:13;12.80;;;2.47;;
32333;SDS011;18810;53.040;8.850;2022-10-19T04:33:39;7.63;;;2.10;;
32333;SDS011;18810;53.040;8.850;2022-10-19T04:36:06;8.30;;;2.47;;
32333;SDS011;18810;53.040;8.850;2022-10-19T04:38:34;7.28;;;2.25;;
32333;SDS011;18810;53.040;8.850;2022-10-19T04:41:01;9.27;;;2.10;;
32333;SDS011;18810;53.040;8.850;2022-10-19T04:43:31;5.78;;;2.00;;
32333;SDS011;18810;53.040;8.850;2022-10-19T04:46:01;10.70;;;2.40;;
32333;SDS011;18810;53.040;8.850;2022-10-19T04:48:31;11.45;;;2.95;;
32333;SDS011;18810;53.040;8.850;2022-10-19T04:50:58;7.47;;;2.40;;
32333;SDS011;18810;53.040;8.850;2022-10-19T04:53:24;10.15;;;2.13;;
32333;SDS011;18810;53.040;8.850;2022-10-19T04:55:49;11.25;;;2.08;;
32333;SDS011;18810;53.040;8.850;2022-10-19T04:58:15;6.30;;;1.92;;
32333;SDS011;18810;53.040;8.850;2022-10-19T05:00:41;7.25;;;2.65;;
32333;SDS011;18810;53.040;8.850;2022-10-19T05:03:06;9.90;;;1.95;;
32333;SDS011;18810;53.040;8.850;2022-10-19T05:05:32;6.88;;;1.90;;
32333;SDS011;18810;53.040;8.850;2022-10-19T05:07:58;8.77;;;1.50;;
32333;SDS011;18810;53.040;8.850;2022-10-19T05:10:24;8.55;;;1.95;;
32333;SDS011;18810;53.040;8.850;2022-10-19T05:12:50;7.05;;;2.47;;
32333;SDS011;18810;53.040;8.850;2022-10-19T05:15:16;5.10;;;1.77;;
32333;SDS011;18810;53.040;8.850;2022-10-19T05:17:41;7.07;;;1.73;;
32333;SDS011;18810;53.040;8.850;2022-10-19T05:20:07;6.00;;;1.65;;
32333;SDS011;18810;53.040;8.850;2022-10-19T05:22:35;6.57;;;1.77;;
32333;SDS011;18810;53.040;8.850;2022-10-19T05:25:04;9.00;;;1.90;;
32333;SDS011;18810;53.040;8.850;2022-10-19T05:27:31;8.68;;;2.13;;
32333;SDS011;18810;53.040;8.850;2022-10-19T05:29:56;7.78;;;1.63;;
32333;SDS011;18810;53.040;8.850;2022-10-19T05:32:22;6.97;;;1.83;;
32333;SDS011;18810;53.040;8.850;2022-10-19T05:34:48;10.73;;;1.92;;
32333;SDS011;18810;53.040;8.850;2022-10-19T05:37:14;7.22;;;1.60;;
32333;SDS011;18810;53.040;8.850;2022-10-19T05:39:41;6.88;;;1.30;;
32333;SDS011;18810;53.040;8.850;2022-10-19T05:42:07;6.35;;;1.73;;
32333;SDS011;18810;53.040;8.850;2022-10-19T05:44:32;7.10;;;1.90;;
32333;SDS011;18810;53.040;8.850;2022-10-19T05:46:58;11.27;;;2.22;;
32333;SDS011;18810;53.040;8.850;2022-10-19T05:49:24;11.20;;;2.13;;
32333;SDS011;18810;53.040;8.850;2022-10-19T05:51:50;10.32;;;2.25;;
32333;SDS011;18810;53.040;8.850;2022-10-19T05:54:16;10.10;;;1.48;;
32333;SDS011;18810;53.040;8.850;2022-10-19T05:56:43;6.25;;;1.80;;
32333;SDS011;18810;53.040;8.850;2022-10-19T05:59:09;10.20;;;1.83;;
32333;SDS011;18810;53.040;8.850;2022-10-19T06:01:38;4.97;;;1.33;;
32333;SDS011;18810;53.040;8.850;2022-10-19T06:04:03;4.45;;;1.33;;
32333;SDS011;18810;53.040;8.850;2022-10-19T06:06:31;8.52;;;1.85;;
32333;SDS011;18810;53.040;8.850;2022-10-19T06:08:58;2.65;;;1.30;;
32333;SDS011;18810;53.040;8.850;2022-10-19T06:11:28;8.85;;;1.20;;
32333;SDS011;18810;53.040;8.850;2022-10-19T06:13:56;8.63;;;1.70;;
32333;SDS011;18810;53.040;8.850;2022-10-19T06:16:23;3.15;;;1.50;;
32333;SDS011;18810;53.040;8.850;2022-10-19T06:18:50;6.30;;;1.60;;
32333;SDS011;18810;53.040;8.850;2022-10-19T06:21:19;5.78;;;1.90;;
32333;SDS011;18810;53.040;8.850;2022-10-19T06:23:50;7.32;;;1.73;;
32333;SDS011;18810;53.040;8.850;2022-10-19T06:26:20;8.55;;;2.25;;
32333;SDS011;18810;53.040;8.850;2022-10-19T06:28:46;13.40;;;5.13;;
32333;SDS011;18810;53.040;8.850;2022-10-19T06:31:13;9.75;;;4.30;;
32333;SDS011;18810;53.040;8.850;2022-10-19T06:33:39;11.48;;;2.72;;
32333;SDS011;18810;53.040;8.850;2022-10-19T06:36:39;8.07;;;2.45;;
32333;SDS011;18810;53.040;8.850;2022-10-19T06:38:58;6.15;;;1.33;;
32333;SDS011;18810;53.040;8.850;2022-10-19T06:41:25;7.95;;;1.85;;
32333;SDS011;18810;53.040;8.850;2022-10-19T06:43:52;6.45;;;1.30;;
32333;SDS011;18810;53.040;8.850;2022-10-19T06:46:19;8.00;;;1.98;;
32333;SDS011;18810;53.040;8.850;2022-10-19T06:48:57;10.45;;;1.90;;
32333;SDS011;18810;53.040;8.850;2022-10-19T06:51:25;10.07;;;2.33;;
32333;SDS011;18810;53.040;8.850;2022-10-19T06:53:52;5.97;;;2.08;;
32333;SDS011;18810;53.040;8.850;2022-10-19T06:56:18;5.80;;;2.10;;
32333;SDS011;18810;53.040;8.850;2022-10-19T06:58:45;6.15;;;2.60;;
32333;SDS011;18810;53.040;8.850;2022-10-19T07:01:11;5.03;;;1.63;;
32333;SDS011;18810;53.040;8.850;2022-10-19T07:03:38;4.00;;;1.15;;
32333;SDS011;18810;53.040;8.850;2022-10-19T07:06:05;5.15;;;1.90;;
32333;SDS011;18810;53.040;8.850;2022-10-19T07:08:33;7.18;;;2.03;;
32333;SDS011;18810;53.040;8.850;2022-10-19T07:11:01;6.93;;;1.90;;
32333;SDS011;18810;53.040;8.850;2022-10-19T07:13:29;7.53;;;1.60;;
32333;SDS011;18810;53.040;8.850;2022-10-19T07:15:59;5.63;;;1.75;;
32333;SDS011;18810;53.040;8.850;2022-10-19T07:18:27;6.25;;;1.75;;
32333;SDS011;18810;53.040;8.850;2022-10-19T07:20:57;4.18;;;1.70;;
32333;SDS011;18810;53.040;8.850;2022-10-19T07:23:24;5.57;;;1.63;;
32333;SDS011;18810;53.040;8.850;2022-10-19T07:25:51;7.00;;;1.73;;
32333;SDS011;18810;53.040;8.850;2022-10-19T07:28:18;5.50;;;1.60;;
32333;SDS011;18810;53.040;8.850;2022-10-19T07:30:45;6.47;;;2.15;;
32333;SDS011;18810;53.040;8.850;2022-10-19T07:33:11;9.80;;;2.03;;
32333;SDS011;18810;53.040;8.850;2022-10-19T07:35:37;7.15;;;1.80;;
32333;SDS011;18810;53.040;8.850;2022-10-19T07:38:03;6.88;;;1.58;;
32333;SDS011;18810;53.040;8.850;2022-10-19T07:40:28;6.20;;;1.92;;
32333;SDS011;18810;53.040;8.850;2022-10-19T07:42:54;6.97;;;1.80;;
32333;SDS011;18810;53.040;8.850;2022-10-19T07:45:20;6.13;;;1.60;;
32333;SDS011;18810;53.040;8.850;2022-10-19T07:47:45;8.30;;;1.60;;
32333;SDS011;18810;53.040;8.850;2022-10-19T07:50:11;7.82;;;2.10;;
32333;SDS011;18810;53.040;8.850;2022-10-19T07:52:37;5.88;;;1.67;;
32333;SDS011;18810;53.040;8.850;2022-10-19T07:55:02;9.35;;;2.00;;
32333;SDS011;18810;53.040;8.850;2022-10-19T07:57:28;7.38;;;2.17;;
32333;SDS011;18810;53.040;8.850;2022-10-19T07:59:54;6.45;;;1.85;;
32333;SDS011;18810;53.040;8.850;2022-10-19T08:02:19;8.10;;;2.15;;
32333;SDS011;18810;53.040;8.850;2022-10-19T08:04:45;9.40;;;2.38;;
32333;SDS011;18810;53.040;8.850;2022-10-19T08:07:11;6.47;;;1.92;;
32333;SDS011;18810;53.040;8.850;2022-10-19T08:09:36;8.90;;;2.15;;
32333;SDS011;18810;53.040;8.850;2022-10-19T08:12:03;6.25;;;1.88;;
32333;SDS011;18810;53.040;8.850;2022-10-19T08:14:29;6.85;;;2.03;;
32333;SDS011;18810;53.040;8.850;2022-10-19T08:16:55;6.72;;;1.95;;
32333;SDS011;18810;53.040;8.850;2022-10-19T08:19:21;7.55;;;1.58;;
32333;SDS011;18810;53.040;8.850;2022-10-19T08:21:48;6.57;;;1.88;;
32333;SDS011;18810;53.040;8.850;2022-10-19T08:24:15;8.75;;;1.73;;
32333;SDS011;18810;53.040;8.850;2022-10-19T08:26:42;7.93;;;1.70;;
32333;SDS011;18810;53.040;8.850;2022-10-19T08:29:14;8.48;;;1.88;;
32333;SDS011;18810;53.040;8.850;2022-10-19T08:31:42;5.80;;;1.85;;
32333;SDS011;18810;53.040;8.850;2022-10-19T08:34:10;6.47;;;1.58;;
32333;SDS011;18810;53.040;8.850;2022-10-19T08:36:36;6.05;;;1.73;;
32333;SDS011;18810;53.040;8.850;2022-10-19T08:39:03;8.05;;;1.80;;
32333;SDS011;18810;53.040;8.850;2022-10-19T08:49:38;4.20;;;1.58;;
32333;SDS011;18810;53.040;8.850;2022-10-19T08:52:06;8.40;;;2.20;;
32333;SDS011;18810;53.040;8.850;2022-10-19T08:54:55;7.72;;;1.77;;
32333;SDS011;18810;53.040;8.850;2022-10-19T09:03:23;7.78;;;1.77;;
32333;SDS011;18810;53.040;8.850;2022-10-19T09:05:55;10.38;;;1.90;;
32333;SDS011;18810;53.040;8.850;2022-10-19T09:08:22;8.57;;;1.83;;
32333;SDS011;18810;53.040;8.850;2022-10-19T09:10:49;6.63;;;1.80;;
32333;SDS011;18810;53.040;8.850;2022-10-19T09:14:02;5.78;;;1.50;;
32333;SDS011;18810;53.040;8.850;2022-10-19T09:16:14;4.43;;;1.60;;
32333;SDS011;18810;53.040;8.850;2022-10-19T09:18:42;4.18;;;1.65;;
32333;SDS011;18810;53.040;8.850;2022-10-19T09:23:56;5.97;;;1.90;;
32333;SDS011;18810;53.040;8.850;2022-10-19T09:27:09;6.38;;;1.60;;
32333;SDS011;18810;53.040;8.850;2022-10-19T09:29:31;6.85;;;2.40;;
32333;SDS011;18810;53.040;8.850;2022-10-19T09:32:04;10.57;;;1.60;;
32333;SDS011;18810;53.040;8.850;2022-10-19T09:34:43;7.55;;;1.80;;
32333;SDS011;18810;53.040;8.850;2022-10-19T09:37:15;5.97;;;1.90;;
32333;SDS011;18810;53.040;8.850;2022-10-19T09:39:41;5.95;;;2.10;;
32333;SDS011;18810;53.040;8.850;2022-10-19T09:45:00;3.30;;;1.40;;
32333;SDS011;18810;53.040;8.850;2022-10-19T09:47:37;8.07;;;1.85;;
32333;SDS011;18810;53.040;8.850;2022-10-19T09:52:43;6.40;;;1.80;;
32333;SDS011;18810;53.040;8.850;2022-10-19T09:57:42;7.47;;;2.20;;
32333;SDS011;18810;53.040;8.850;2022-10-19T10:00:16;7.20;;;1.92;;
32333;SDS011;18810;53.040;8.850;2022-10-19T10:03:03;5.78;;;1.80;;
32333;SDS011;18810;53.040;8.850;2022-10-19T10:05:39;4.85;;;1.52;;
32333;SDS011;18810;53.040;8.850;2022-10-19T10:08:13;4.55;;;1.60;;
32333;SDS011;18810;53.040;8.850;2022-10-19T10:13:37;7.15;;;1.67;;
32333;SDS011;18810;53.040;8.850;2022-10-19T10:16:09;6.32;;;1.80;;
32333;SDS011;18810;53.040;8.850;2022-10-19T10:21:28;6.88;;;2.00;;
32333;SDS011;18810;53.040;8.850;2022-10-19T10:24:20;3.53;;;1.70;;
32333;SDS011;18810;53.040;8.850;2022-10-19T10:26:48;6.20;;;1.60;;
32333;SDS011;18810;53.040;8.850;2022-10-19T10:29:16;4.40;;;1.67;;
32333;SDS011;18810;53.040;8.850;2022-10-19T10:31:51;6.20;;;1.73;;
32333;SDS011;18810;53.040;8.850;2022-10-19T10:37:19;4.50;;;1.60;;
32333;SDS011;18810;53.040;8.850;2022-10-19T10:39:53;9.82;;;3.22;;
32333;SDS011;18810;53.040;8.850;2022-10-19T10:42:41;3.95;;;1.50;;
32333;SDS011;18810;53.040;8.850;2022-10-19T10:45:24;5.28;;;1.85;;
32333;SDS011;18810;53.040;8.850;2022-10-19T10:47:53;18.67;;;8.32;;
32333;SDS011;18810;53.040;8.850;2022-10-19T10:50:23;5.82;;;1.90;;
32333;SDS011;18810;53.040;8.850;2022-10-19T10:53:04;4.20;;;1.50;;
32333;SDS011;18810;53.040;8.850;2022-10-19T10:55:32;5.53;;;1.70;;
32333;SDS011;18810;53.040;8.850;2022-10-19T10:58:08;5.70;;;2.08;;
32333;SDS011;18810;53.040;8.850;2022-10-19T11:03:16;8.55;;;2.10;;
32333;SDS011;18810;53.040;8.850;2022-10-19T11:05:50;8.00;;;2.10;;
32333;SDS011;18810;53.040;8.850;2022-10-19T11:13:44;3.97;;;1.50;;
32333;SDS011;18810;53.040;8.850;2022-10-19T11:16:16;7.93;;;1.88;;
32333;SDS011;18810;53.040;8.850;2022-10-19T11:19:32;5.03;;;1.73;;
32333;SDS011;18810;53.040;8.850;2022-10-19T11:22:07;6.20;;;1.30;;
32333;SDS011;18810;53.040;8.850;2022-10-19T11:30:08;4.63;;;1.60;;
32333;SDS011;18810;53.040;8.850;2022-10-19T11:35:23;5.10;;;1.58;;
32333;SDS011;18810;53.040;8.850;2022-10-19T11:40:44;5.75;;;1.58;;
32333;SDS011;18810;53.040;8.850;2022-10-19T11:57:04;5.00;;;1.40;;
32333;SDS011;18810;53.040;8.850;2022-10-19T12:13:01;5.53;;;1.50;;
32333;SDS011;18810;53.040;8.850;2022-10-19T12:18:05;7.22;;;1.67;;
32333;SDS011;18810;53.040;8.850;2022-10-19T12:20:55;6.15;;;1.55;;
32333;SDS011;18810;53.040;8.850;2022-10-19T12:23:33;5.85;;;1.80;;
32333;SDS011;18810;53.040;8.850;2022-10-19T12:26:07;3.60;;;1.40;;
32333;SDS011;18810;53.040;8.850;2022-10-19T12:28:42;6.22;;;1.65;;
32333;SDS011;18810;53.040;8.850;2022-10-19T12:31:16;4.70;;;1.80;;
32333;SDS011;18810;53.040;8.850;2022-10-19T12:46:42;6.03;;;1.85;;
32333;SDS011;18810;53.040;8.850;2022-10-19T12:50:11;5.78;;;1.80;;
32333;SDS011;18810;53.040;8.850;2022-10-19T12:57:40;4.57;;;1.75;;
32333;SDS011;18810;53.040;8.850;2022-10-19T13:02:44;3.72;;;1.58;;
32333;SDS011;18810;53.040;8.850;2022-10-19T13:05:19;4.82;;;1.23;;
32333;SDS011;18810;53.040;8.850;2022-10-19T13:07:47;4.93;;;1.38;;
32333;SDS011;18810;53.040;8.850;2022-10-19T13:10:17;5.07;;;1.42;;
32333;SDS011;18810;53.040;8.850;2022-10-19T13:12:46;4.47;;;1.23;;
32333;SDS011;18810;53.040;8.850;2022-10-19T13:17:59;6.28;;;1.50;;
32333;SDS011;18810;53.040;8.850;2022-10-19T13:25:25;5.70;;;1.60;;
32333;SDS011;18810;53.040;8.850;2022-10-19T13:36:10;6.38;;;1.60;;
32333;SDS011;18810;53.040;8.850;2022-10-19T13:41:26;5.32;;;1.60;;
32333;SDS011;18810;53.040;8.850;2022-10-19T14:04:08;5.72;;;1.58;;
32333;SDS011;18810;53.040;8.850;2022-10-19T14:11:51;6.05;;;1.80;;
32333;SDS011;18810;53.040;8.850;2022-10-19T14:14:28;5.32;;;1.48;;
32333;SDS011;18810;53.040;8.850;2022-10-19T14:16:58;2.97;;;1.48;;
32333;SDS011;18810;53.040;8.850;2022-10-19T14:19:30;4.40;;;1.40;;
32333;SDS011;18810;53.040;8.850;2022-10-19T14:21:59;4.63;;;1.65;;
32333;SDS011;18810;53.040;8.850;2022-10-19T14:24:41;4.40;;;1.52;;
32333;SDS011;18810;53.040;8.850;2022-10-19T14:27:06;4.30;;;1.85;;
32333;SDS011;18810;53.040;8.850;2022-10-19T14:29:35;5.63;;;2.03;;
32333;SDS011;18810;53.040;8.850;2022-10-19T14:32:09;5.18;;;1.73;;
32333;SDS011;18810;53.040;8.850;2022-10-19T14:34:42;7.15;;;1.88;;
32333;SDS011;18810;53.040;8.850;2022-10-19T14:37:17;3.67;;;1.52;;
32333;SDS011;18810;53.040;8.850;2022-10-19T14:42:54;6.65;;;1.75;;
32333;SDS011;18810;53.040;8.850;2022-10-19T14:45:22;3.08;;;1.75;;
32333;SDS011;18810;53.040;8.850;2022-10-19T14:47:58;8.07;;;1.77;;
32333;SDS011;18810;53.040;8.850;2022-10-19T14:56:11;4.75;;;1.90;;
32333;SDS011;18810;53.040;8.850;2022-10-19T14:58:40;4.28;;;1.70;;
32333;SDS011;18810;53.040;8.850;2022-10-19T15:01:19;4.90;;;1.98;;
32333;SDS011;18810;53.040;8.850;2022-10-19T15:03:45;4.82;;;1.73;;
32333;SDS011;18810;53.040;8.850;2022-10-19T15:06:31;5.75;;;1.92;;
32333;SDS011;18810;53.040;8.850;2022-10-19T15:09:06;6.20;;;2.25;;
32333;SDS011;18810;53.040;8.850;2022-10-19T15:11:42;7.43;;;2.92;;
32333;SDS011;18810;53.040;8.850;2022-10-19T15:14:18;6.53;;;2.80;;
32333;SDS011;18810;53.040;8.850;2022-10-19T15:19:30;7.25;;;2.42;;
32333;SDS011;18810;53.040;8.850;2022-10-19T15:24:53;7.25;;;2.45;;
32333;SDS011;18810;53.040;8.850;2022-10-19T15:27:21;7.70;;;2.45;;
32333;SDS011;18810;53.040;8.850;2022-10-19T15:30:00;6.25;;;2.75;;
32333;SDS011;18810;53.040;8.850;2022-10-19T15:32:30;7.53;;;2.80;;
32333;SDS011;18810;53.040;8.850;2022-10-19T15:35:11;5.70;;;2.40;;
32333;SDS011;18810;53.040;8.850;2022-10-19T15:37:44;4.57;;;1.95;;
32333;SDS011;18810;53.040;8.850;2022-10-19T15:40:21;7.47;;;2.25;;
32333;SDS011;18810;53.040;8.850;2022-10-19T15:42:50;4.03;;;2.00;;
32333;SDS011;18810;53.040;8.850;2022-10-19T15:50:45;8.30;;;2.55;;
32333;SDS011;18810;53.040;8.850;2022-10-19T15:53:13;6.65;;;3.25;;
32333;SDS011;18810;53.040;8.850;2022-10-19T15:55:39;6.50;;;3.08;;
32333;SDS011;18810;53.040;8.850;2022-10-19T15:58:05;4.75;;;2.90;;
32333;SDS011;18810;53.040;8.850;2022-10-19T16:00:31;3.78;;;2.38;;
32333;SDS011;18810;53.040;8.850;2022-10-19T16:02:56;5.85;;;2.70;;
32333;SDS011;18810;53.040;8.850;2022-10-19T16:05:22;6.82;;;3.42;;
32333;SDS011;18810;53.040;8.850;2022-10-19T16:07:48;6.85;;;3.63;;
32333;SDS011;18810;53.040;8.850;2022-10-19T16:10:18;8.60;;;2.78;;
32333;SDS011;18810;53.040;8.850;2022-10-19T16:12:46;9.65;;;4.05;;
32333;SDS011;18810;53.040;8.850;2022-10-19T16:15:15;7.07;;;4.00;;
32333;SDS011;18810;53.040;8.850;2022-10-19T16:17:47;8.77;;;3.90;;
32333;SDS011;18810;53.040;8.850;2022-10-19T16:20:15;6.10;;;2.47;;
32333;SDS011;18810;53.040;8.850;2022-10-19T16:22:41;7.80;;;2.92;;
32333;SDS011;18810;53.040;8.850;2022-10-19T16:25:08;8.25;;;2.72;;
32333;SDS011;18810;53.040;8.850;2022-10-19T16:27:34;6.55;;;2.63;;
32333;SDS011;18810;53.040;8.850;2022-10-19T16:29:59;5.78;;;2.78;;
32333;SDS011;18810;53.040;8.850;2022-10-19T16:32:25;9.32;;;3.08;;
32333;SDS011;18810;53.040;8.850;2022-10-19T16:34:51;9.13;;;3.33;;
32333;SDS011;18810;53.040;8.850;2022-10-19T16:37:16;10.13;;;3.15;;
32333;SDS011;18810;53.040;8.850;2022-10-19T16:39:42;6.95;;;2.83;;
32333;SDS011;18810;53.040;8.850;2022-10-19T16:42:07;5.55;;;2.47;;
32333;SDS011;18810;53.040;8.850;2022-10-19T16:44:33;7.40;;;3.33;;
32333;SDS011;18810;53.040;8.850;2022-10-19T16:46:59;6.50;;;3.00;;
32333;SDS011;18810;53.040;8.850;2022-10-19T16:49:25;5.25;;;2.97;;
32333;SDS011;18810;53.040;8.850;2022-10-19T16:51:51;9.35;;;3.38;;
32333;SDS011;18810;53.040;8.850;2022-10-19T16:54:16;7.32;;;2.95;;
32333;SDS011;18810;53.040;8.850;2022-10-19T16:56:46;8.13;;;3.97;;
32333;SDS011;18810;53.040;8.850;2022-10-19T16:59:13;7.50;;;3.60;;
32333;SDS011;18810;53.040;8.850;2022-10-19T17:01:41;8.57;;;3.45;;
32333;SDS011;18810;53.040;8.850;2022-10-19T17:04:08;9.43;;;4.95;;
32333;SDS011;18810;53.040;8.850;2022-10-19T17:06:35;8.32;;;4.55;;
32333;SDS011;18810;53.040;8.850;2022-10-19T17:09:01;7.45;;;4.93;;
32333;SDS011;18810;53.040;8.850;2022-10-19T17:11:31;9.02;;;5.30;;
32333;SDS011;18810;53.040;8.850;2022-10-19T17:14:00;10.95;;;4.88;;
32333;SDS011;18810;53.040;8.850;2022-10-19T17:16:28;7.75;;;4.72;;
32333;SDS011;18810;53.040;8.850;2022-10-19T17:18:56;10.52;;;4.93;;
32333;SDS011;18810;53.040;8.850;2022-10-19T17:21:24;7.60;;;5.00;;
32333;SDS011;18810;53.040;8.850;2022-10-19T17:23:51;8.60;;;5.00;;
32333;SDS011;18810;53.040;8.850;2022-10-19T17:26:30;7.75;;;4.45;;
32333;SDS011;18810;53.040;8.850;2022-10-19T17:28:56;10.23;;;4.95;;
32333;SDS011;18810;53.040;8.850;2022-10-19T17:31:22;7.80;;;4.85;;
32333;SDS011;18810;53.040;8.850;2022-10-19T17:33:48;12.10;;;5.25;;
32333;SDS011;18810;53.040;8.850;2022-10-19T17:36:16;6.38;;;4.50;;
32333;SDS011;18810;53.040;8.850;2022-10-19T17:38:45;9.68;;;4.55;;
32333;SDS011;18810;53.040;8.850;2022-10-19T17:41:12;5.63;;;4.15;;
32333;SDS011;18810;53.040;8.850;2022-10-19T17:43:40;7.38;;;4.30;;
32333;SDS011;18810;53.040;8.850;2022-10-19T17:46:08;9.93;;;4.72;;
32333;SDS011;18810;53.040;8.850;2022-10-19T17:48:35;7.13;;;4.25;;
32333;SDS011;18810;53.040;8.850;2022-10-19T17:51:03;10.77;;;4.45;;
32333;SDS011;18810;53.040;8.850;2022-10-19T17:53:35;7.88;;;4.35;;
32333;SDS011;18810;53.040;8.850;2022-10-19T17:56:02;13.48;;;4.90;;
32333;SDS011;18810;53.040;8.850;2022-10-19T17:58:29;6.93;;;4.18;;
32333;SDS011;18810;53.040;8.850;2022-10-19T18:00:56;7.78;;;4.65;;
32333;SDS011;18810;53.040;8.850;2022-10-19T18:03:23;7.50;;;3.95;;
32333;SDS011;18810;53.040;8.850;2022-10-19T18:08:27;6.85;;;4.05;;
32333;SDS011;18810;53.040;8.850;2022-10-19T18:11:04;7.90;;;4.20;;
32333;SDS011;18810;53.040;8.850;2022-10-19T18:13:32;7.70;;;3.53;;
32333;SDS011;18810;53.040;8.850;2022-10-19T18:16:02;6.38;;;4.05;;
32333;SDS011;18810;53.040;8.850;2022-10-19T18:18:33;4.72;;;3.15;;
32333;SDS011;18810;53.040;8.850;2022-10-19T18:21:04;7.13;;;3.70;;